Hooper Bay, Alaska
Current Conditions -  °F | °C
As of 12:56 PM on Monday 20 Oct 2014 (Local Time) from PAHP Reporting Station
Broken Clouds Broken Clouds  
Wind Chill: 24°   Ceiling: 4600
Heat Index: 34°   Visibility: 10mi
Dew Point: 25°   Wind: 14mph
Humidity: 70%   Direction: 10°N
Pressure: 29.33"   Gusts: NA
Location:  61.53°N, 166.1°W
Report Text: PAHP 202056Z AUTO 01012KT 10SM BKN046 01/M04 A2933 RMK AO1 52003
Loading
Personal Weather Stations






























Interactive Weather Map
Tropical Storm Tracking
New forecast layout! Learn more

10-Day Weather Forecast

Advertisements
Track Severe Weather on mobile